KSAT/SAT METAR and TAF weather

Enter ICAO airport designator
Station Type Date Time Source
KSAT METAR 2018/12/13 15:51 UTC NOAA

KSAT 131551Z 25013KT 10SM FEW008 16/12 A2979 RMK AO2 SLP076 T01610122


Station Type Date Time Source
KSAT Decoded METAR 2018/12/13 15:51 UTC NOAA

SAN ANTONIO INTERNATIONAL AIRPORT , TX, United States (KSAT) 29-32N 098-28W 243M
Dec 13, 2018 - 10:51 AM EST / 2018.12.13 1551 UTC
Wind: from the WSW (250 degrees) at 15 MPH (13 KT):0
Visibility: 10 mile(s):0
Sky conditions: mostly clear
Temperature: 61.0 F (16.1 C)
Dew Point: 54.0 F (12.2 C)
Relative Humidity: 77%
Pressure (altimeter): 29.79 in. Hg (1008 hPa)
ob: KSAT 131551Z 25013KT 10SM FEW008 16/12 A2979 RMK AO2 SLP076 T01610122
cycle: 16

Station Type Date Time Source
KSAT TAF 2018/12/13 14:51 UTC NOAA

TAF
AMD KSAT 131348Z 1314/1418 24004KT 6SM BR FEW005
TEMPO 1314/1315 3SM BR
FM131600 27017G27KT P6SM OVC100
FM132200 30023G33KT P6SM SCT100
FM140700 32025G35KT P6SM SCT250


Example: see airport list